createdAt,value
2018-04-27T00:00:05.410Z,101206.02
2018-04-27T00:02:40.523Z,101196.17
2018-04-27T00:05:15.013Z,101195.38
2018-04-27T00:07:50.029Z,101198.25
2018-04-27T00:10:24.616Z,101200.88
2018-04-27T00:12:59.325Z,101195.41
2018-04-27T00:15:33.910Z,101194.33
2018-04-27T00:18:08.622Z,101185.76
2018-04-27T00:20:43.410Z,101190.33
2018-04-27T00:23:18.098Z,101188.44
2018-04-27T00:25:52.694Z,101184.47
2018-04-27T00:28:27.278Z,101185.71
2018-04-27T00:31:02.079Z,101189.13
2018-04-27T00:33:36.652Z,101185.84
2018-04-27T00:36:11.259Z,101185.06
2018-04-27T00:38:45.942Z,101175.90
2018-04-27T00:41:20.738Z,101177.38
2018-04-27T00:43:55.434Z,101162.66
2018-04-27T00:46:30.216Z,101159.28
2018-04-27T00:49:05.007Z,101162.27
2018-04-27T00:51:39.902Z,101161.98
2018-04-27T00:54:14.700Z,101156.69
2018-04-27T00:56:49.390Z,101160.70
2018-04-27T00:59:24.182Z,101159.91
2018-04-27T01:01:59.066Z,101160.41
2018-04-27T01:04:33.968Z,101152.67
2018-04-27T01:07:08.310Z,101150.50
2018-04-27T01:09:43.502Z,101153.77
2018-04-27T01:12:18.382Z,101153.17
2018-04-27T01:14:52.978Z,101152.23
2018-04-27T01:17:27.455Z,101146.81
2018-04-27T01:20:02.468Z,101145.63
2018-04-27T01:22:37.250Z,101149.83
2018-04-27T01:25:11.847Z,101149.98
2018-04-27T01:27:46.754Z,101150.34
2018-04-27T01:30:21.449Z,101160.20
2018-04-27T01:32:55.958Z,101160.36
2018-04-27T01:35:30.764Z,101158.67
2018-04-27T01:38:05.447Z,101159.58
2018-04-27T01:40:40.238Z,101158.03
2018-04-27T01:43:15.023Z,101156.73
2018-04-27T01:45:49.899Z,101150.39
2018-04-27T01:48:24.606Z,101148.31
2018-04-27T01:50:59.517Z,101149.61
2018-04-27T01:53:34.210Z,101142.37
2018-04-27T01:56:08.838Z,101144.86
2018-04-27T01:58:43.413Z,101140.55
2018-04-27T02:01:18.220Z,101146.40
2018-04-27T02:03:52.999Z,101138.67
2018-04-27T02:06:27.986Z,101142.99
2018-04-27T02:09:02.763Z,101142.09
2018-04-27T02:11:37.782Z,101137.73
2018-04-27T02:14:12.966Z,101132.23
2018-04-27T02:16:47.754Z,101137.14
2018-04-27T02:19:22.460Z,101132.48
2018-04-27T02:21:57.053Z,101129.86
2018-04-27T02:24:31.913Z,101132.73
2018-04-27T02:27:06.595Z,101128.08
2018-04-27T02:29:41.418Z,101125.05
2018-04-27T02:32:16.102Z,101124.12
2018-04-27T02:34:50.821Z,101123.66
2018-04-27T02:37:25.430Z,101125.90
2018-04-27T02:40:00.127Z,101122.97
2018-04-27T02:42:34.743Z,101127.58
2018-04-27T02:45:09.458Z,101118.72
2018-04-27T02:47:44.071Z,101114.95
2018-04-27T02:50:18.674Z,101113.77
2018-04-27T02:52:53.382Z,101106.58
2018-04-27T02:55:28.271Z,101099.15
2018-04-27T02:58:03.054Z,101105.38
2018-04-27T03:00:37.652Z,101106.67
2018-04-27T03:03:12.438Z,101109.25
2018-04-27T03:05:47.260Z,101108.35
2018-04-27T03:08:21.839Z,101108.91
2018-04-27T03:10:56.591Z,101106.88
2018-04-27T03:13:31.100Z,101107.13
2018-04-27T03:16:05.771Z,101099.50
2018-04-27T03:18:40.532Z,101098.11
2018-04-27T03:21:15.435Z,101100.30
2018-04-27T03:23:50.187Z,101097.75
2018-04-27T03:26:24.742Z,101089.65
2018-04-27T03:28:59.419Z,101089.79
2018-04-27T03:31:34.263Z,101090.97
2018-04-27T03:34:08.751Z,101093.30
2018-04-27T03:36:43.496Z,101091.52
2018-04-27T03:39:18.282Z,101094.55
2018-04-27T03:41:53.080Z,101090.28
2018-04-27T03:44:27.901Z,101086.11
2018-04-27T03:47:02.678Z,101089.29
2018-04-27T03:49:37.210Z,101087.10
2018-04-27T03:52:12.217Z,101085.48
2018-04-27T03:54:47.011Z,101083.89
2018-04-27T03:57:21.789Z,101085.33
2018-04-27T04:00:08.595Z,101088.00
2018-04-27T04:02:54.954Z,101117.84
2018-04-27T04:05:30.668Z,101084.08
2018-04-27T04:08:05.933Z,101089.83
2018-04-27T04:10:40.730Z,101086.95
2018-04-27T04:13:15.510Z,101091.80
2018-04-27T04:15:50.671Z,101086.41
2018-04-27T04:18:25.269Z,101080.95
2018-04-27T04:20:59.977Z,101081.71
2018-04-27T04:23:35.295Z,101082.50
2018-04-27T04:26:10.422Z,101086.42
2018-04-27T04:28:45.135Z,101086.47
2018-04-27T04:31:20.030Z,101082.45
2018-04-27T04:33:54.823Z,101085.57
2018-04-27T04:36:29.538Z,101086.97
2018-04-27T04:39:03.786Z,101085.88
2018-04-27T04:41:38.883Z,101093.55
2018-04-27T04:44:13.478Z,101090.48
2018-04-27T04:46:48.683Z,101090.77
2018-04-27T04:49:23.140Z,101083.00
2018-04-27T04:51:57.932Z,101074.98
2018-04-27T04:54:32.721Z,101072.30
2018-04-27T04:57:07.542Z,101073.94
2018-04-27T04:59:42.155Z,101083.24
2018-04-27T05:02:16.846Z,101087.16
2018-04-27T05:04:51.638Z,101087.02
2018-04-27T05:07:26.633Z,101085.17
2018-04-27T05:10:01.248Z,101082.89
2018-04-27T05:12:36.086Z,101085.77
2018-04-27T05:15:10.443Z,101088.34
2018-04-27T05:17:45.230Z,101086.07
2018-04-27T05:20:18.695Z,101086.86
2018-04-27T05:22:53.448Z,101086.60
2018-04-27T05:25:28.141Z,101081.80
2018-04-27T05:28:02.962Z,101093.34
2018-04-27T05:30:37.964Z,101087.34
2018-04-27T05:33:12.474Z,101084.00
2018-04-27T05:35:47.384Z,101088.65
2018-04-27T05:38:22.098Z,101082.99
2018-04-27T05:40:56.454Z,101085.00
2018-04-27T05:43:31.110Z,101079.27
2018-04-27T05:46:06.020Z,101082.58
2018-04-27T05:48:40.194Z,101079.20
2018-04-27T05:51:14.913Z,101082.34
2018-04-27T05:53:49.570Z,101076.97
2018-04-27T05:56:23.885Z,101065.39
2018-04-27T05:58:59.063Z,101064.68
2018-04-27T06:01:33.968Z,101065.64
2018-04-27T06:04:13.702Z,101066.48
2018-04-27T06:06:48.499Z,101061.11
2018-04-27T06:09:23.282Z,101057.92
2018-04-27T06:11:57.983Z,101059.38
2018-04-27T06:14:32.554Z,101051.91
2018-04-27T06:17:07.157Z,101056.30
2018-04-27T06:19:41.779Z,101052.84
2018-04-27T06:22:16.396Z,101052.48
2018-04-27T06:24:51.098Z,101048.61
2018-04-27T06:27:25.794Z,101043.42
2018-04-27T06:30:04.410Z,101040.13
2018-04-27T06:32:39.111Z,101047.25
2018-04-27T06:35:13.680Z,101046.52
2018-04-27T06:37:48.410Z,101046.12
2018-04-27T06:40:23.346Z,101041.84
2018-04-27T06:42:57.810Z,101032.72
2018-04-27T06:45:32.668Z,101039.18
2018-04-27T06:48:07.363Z,101028.17
2018-04-27T06:50:42.030Z,101027.81
2018-04-27T06:53:16.649Z,101024.62
2018-04-27T06:55:51.302Z,101028.92
2018-04-27T06:58:25.962Z,101020.41
2018-04-27T07:01:00.639Z,101027.78
2018-04-27T07:03:35.309Z,101028.54
2018-04-27T07:06:09.878Z,101025.20
2018-04-27T07:08:44.347Z,101020.14
2018-04-27T07:11:19.024Z,101021.55
2018-04-27T07:13:53.716Z,101031.30
2018-04-27T07:16:28.517Z,101019.41
2018-04-27T07:19:03.115Z,101017.22
2018-04-27T07:21:37.954Z,101015.89
2018-04-27T07:24:12.718Z,101012.40
2018-04-27T07:26:47.290Z,101018.81
2018-04-27T07:29:22.203Z,101010.67
2018-04-27T07:31:56.485Z,101003.77
2018-04-27T07:34:30.833Z,101008.25
2018-04-27T07:37:05.600Z,101004.06
2018-04-27T07:39:40.779Z,100999.25
2018-04-27T07:42:15.429Z,101005.04
2018-04-27T07:44:49.780Z,101002.89
2018-04-27T07:47:24.151Z,101006.94
2018-04-27T07:49:58.578Z,100999.69
2018-04-27T07:52:33.409Z,101000.63
2018-04-27T07:55:07.913Z,100994.55
2018-04-27T07:57:42.402Z,100998.67
2018-04-27T08:00:16.797Z,101001.51
2018-04-27T08:02:51.674Z,100997.61
2018-04-27T08:05:25.999Z,100994.22
2018-04-27T08:08:00.732Z,100999.27
2018-04-27T08:10:35.210Z,101005.70
2018-04-27T08:13:10.005Z,100994.84
2018-04-27T08:15:44.771Z,100991.00
2018-04-27T08:18:19.452Z,100996.72
2018-04-27T08:20:54.079Z,100998.35
2018-04-27T08:23:28.752Z,101001.20
2018-04-27T08:26:03.368Z,101000.88
2018-04-27T08:28:38.034Z,101004.54
2018-04-27T08:31:12.818Z,101007.06
2018-04-27T08:33:47.423Z,101005.48
2018-04-27T08:36:22.386Z,101002.82
2018-04-27T08:38:57.386Z,101004.70
2018-04-27T08:41:32.189Z,100998.30
2018-04-27T08:44:06.571Z,100991.34
2018-04-27T08:46:41.592Z,100985.13
2018-04-27T08:49:16.258Z,100986.36
2018-04-27T08:51:50.934Z,100977.61
2018-04-27T08:54:25.256Z,100971.48
2018-04-27T08:56:59.887Z,100982.48
2018-04-27T08:59:34.276Z,100979.45
2018-04-27T09:02:08.847Z,100970.11
2018-04-27T09:04:43.859Z,100960.09
2018-04-27T09:07:18.424Z,100952.72
2018-04-27T09:09:52.907Z,100961.20
2018-04-27T09:12:27.681Z,100955.34
2018-04-27T09:15:02.360Z,100952.69
2018-04-27T09:17:37.247Z,100943.93
2018-04-27T09:20:12.246Z,100949.73
2018-04-27T09:22:46.735Z,100948.69
2018-04-27T09:25:21.234Z,100952.69
2018-04-27T09:27:55.965Z,100948.84
2018-04-27T09:30:30.228Z,100949.78
2018-04-27T09:33:05.036Z,100948.02
2018-04-27T09:35:39.715Z,100950.16
2018-04-27T09:38:14.218Z,100943.85
2018-04-27T09:40:48.487Z,100942.45
2018-04-27T09:43:22.932Z,100938.80
2018-04-27T09:45:57.504Z,100943.66
2018-04-27T09:48:32.216Z,100938.01
2018-04-27T09:51:06.146Z,100932.30
2018-04-27T09:53:41.142Z,100941.65
2018-04-27T09:56:15.835Z,100933.14
2018-04-27T09:58:50.018Z,100935.59
2018-04-27T10:01:24.798Z,100928.64
2018-04-27T10:03:59.071Z,100905.80
2018-04-27T10:06:33.532Z,100914.98
2018-04-27T10:09:08.442Z,100919.05
2018-04-27T10:11:43.058Z,100919.28
2018-04-27T10:14:17.574Z,100913.95
2018-04-27T10:16:52.260Z,100912.69
2018-04-27T10:19:26.194Z,100912.80
2018-04-27T10:22:01.207Z,100909.36
2018-04-27T10:24:35.911Z,100898.75
2018-04-27T10:27:10.498Z,100899.29
2018-04-27T10:29:45.008Z,100884.64
2018-04-27T10:32:19.835Z,100879.09
2018-04-27T10:34:54.420Z,100876.03
2018-04-27T10:37:29.114Z,100881.71
2018-04-27T10:40:03.660Z,100874.71
2018-04-27T10:42:38.572Z,100873.77
2018-04-27T10:45:12.916Z,100863.91
2018-04-27T10:47:47.109Z,100871.60
2018-04-27T10:50:21.737Z,100862.98
2018-04-27T10:52:56.428Z,100858.27
2018-04-27T10:55:31.322Z,100860.84
2018-04-27T10:58:05.687Z,100852.98
2018-04-27T11:00:40.155Z,100848.59
2018-04-27T11:03:14.804Z,100839.68
2018-04-27T11:05:49.323Z,100844.28
2018-04-27T11:08:23.906Z,100840.02
2018-04-27T11:10:58.737Z,100846.66
2018-04-27T11:13:32.956Z,100843.64
2018-04-27T11:16:07.760Z,100841.96
2018-04-27T11:18:42.317Z,100847.41
2018-04-27T11:21:16.878Z,100843.72
2018-04-27T11:23:51.557Z,100836.08
2018-04-27T11:26:26.015Z,100839.50
2018-04-27T11:29:00.591Z,100826.78
2018-04-27T11:31:35.465Z,100816.58
2018-04-27T11:34:10.579Z,100807.90
2018-04-27T11:36:45.356Z,100800.25
2018-04-27T11:39:20.913Z,100802.37
2018-04-27T11:41:55.486Z,100809.55
2018-04-27T11:44:30.547Z,100807.27
2018-04-27T11:47:04.782Z,100799.66
2018-04-27T11:49:39.364Z,100798.64
2018-04-27T11:52:14.422Z,100798.64
2018-04-27T11:54:48.992Z,100799.69
2018-04-27T11:57:23.462Z,100798.26
2018-04-27T11:59:58.036Z,100787.99
2018-04-27T12:02:34.203Z,100785.66
2018-04-27T12:05:08.804Z,100780.55
2018-04-27T12:07:43.575Z,100775.66
2018-04-27T12:10:18.371Z,100784.30
2018-04-27T12:12:52.829Z,100775.66
2018-04-27T12:15:27.400Z,100769.40
2018-04-27T12:18:01.881Z,100767.22
2018-04-27T12:20:36.955Z,100773.55
2018-04-27T12:23:11.682Z,100774.16
2018-04-27T12:25:46.040Z,100766.66
2018-04-27T12:28:21.037Z,100763.59
2018-04-27T12:30:56.520Z,100756.23
2018-04-27T12:33:31.977Z,100759.48
2018-04-27T12:36:06.324Z,100754.88
2018-04-27T12:38:40.896Z,100748.89
2018-04-27T12:41:15.040Z,100735.28
2018-04-27T12:43:59.251Z,100751.02
2018-04-27T12:46:33.992Z,100743.07
2018-04-27T12:49:08.765Z,100749.22
2018-04-27T12:51:43.110Z,100748.44
2018-04-27T12:54:17.598Z,100735.94
2018-04-27T12:56:52.252Z,100734.03
2018-04-27T12:59:26.957Z,100728.08
2018-04-27T13:02:01.643Z,100721.63
2018-04-27T13:04:36.167Z,100721.30
2018-04-27T13:07:10.523Z,100706.40
2018-04-27T13:09:45.316Z,100699.86
2018-04-27T13:12:19.447Z,100699.27
2018-04-27T13:14:54.237Z,100689.84
2018-04-27T13:17:28.284Z,100686.98
2018-04-27T13:20:02.709Z,100673.91
2018-04-27T13:22:37.657Z,100665.83
2018-04-27T13:25:12.395Z,100658.64
2018-04-27T13:27:46.820Z,100657.94
2018-04-27T13:30:21.251Z,100658.32
2018-04-27T13:32:56.030Z,100647.31
2018-04-27T13:35:30.730Z,100647.26
2018-04-27T13:38:05.018Z,100633.17
2018-04-27T13:40:39.822Z,100635.56
2018-04-27T13:43:14.427Z,100639.03
2018-04-27T13:45:48.836Z,100638.89
2018-04-27T13:48:23.435Z,100632.64
2018-04-27T13:50:57.454Z,100623.36
2018-04-27T13:53:32.075Z,100636.22
2018-04-27T13:56:06.731Z,100619.86
2018-04-27T13:58:41.187Z,100619.19
2018-04-27T14:01:15.586Z,100615.41
2018-04-27T14:03:50.243Z,100605.61
2018-04-27T14:06:24.607Z,100609.41
2018-04-27T14:08:59.155Z,100601.66
2018-04-27T14:11:33.819Z,100601.07
2018-04-27T14:14:08.460Z,100621.72
2018-04-27T14:16:43.231Z,100601.69
2018-04-27T14:19:17.703Z,100601.44
2018-04-27T14:21:52.351Z,100604.67
2018-04-27T14:24:26.998Z,100598.98
2018-04-27T14:27:01.555Z,100602.91
2018-04-27T14:29:36.238Z,100598.31
2018-04-27T14:32:10.952Z,100590.47
2018-04-27T14:34:45.385Z,100603.33
2018-04-27T14:37:20.130Z,100596.52
2018-04-27T14:39:54.928Z,100584.51
2018-04-27T14:42:29.283Z,100586.81
2018-04-27T14:45:03.462Z,100577.47
2018-04-27T14:47:38.749Z,100575.17
2018-04-27T14:50:13.014Z,100573.88
2018-04-27T14:52:47.812Z,100570.72
2018-04-27T14:55:22.095Z,100571.53
2018-04-27T14:57:56.130Z,100566.48
2018-04-27T15:00:30.154Z,100559.14
2018-04-27T15:03:04.557Z,100555.95
2018-04-27T15:05:39.743Z,100556.30
2018-04-27T15:08:14.275Z,100563.27
2018-04-27T15:10:48.543Z,100559.15
2018-04-27T15:13:23.132Z,100560.50
2018-04-27T15:15:58.027Z,100551.84
2018-04-27T15:18:32.381Z,100546.98
2018-04-27T15:21:06.951Z,100553.48
2018-04-27T15:23:41.743Z,100548.42
2018-04-27T15:26:16.029Z,100542.29
2018-04-27T15:28:50.025Z,100538.84
2018-04-27T15:31:25.214Z,100535.69
2018-04-27T15:33:59.825Z,100540.30
2018-04-27T15:36:34.004Z,100545.92
2018-04-27T15:39:08.623Z,100530.39
2018-04-27T15:41:42.995Z,100527.34
2018-04-27T15:44:17.234Z,100526.87
2018-04-27T15:46:51.958Z,100525.83
2018-04-27T15:49:26.450Z,100522.35
2018-04-27T15:52:00.925Z,100522.80
2018-04-27T15:54:35.847Z,100519.22
2018-04-27T15:57:10.503Z,100517.61
2018-04-27T15:59:45.327Z,100520.72
2018-04-27T16:02:19.909Z,100521.73
2018-04-27T16:04:54.465Z,100523.08
2018-04-27T16:07:28.923Z,100516.27
2018-04-27T16:10:03.551Z,100511.68
2018-04-27T16:12:38.555Z,100505.98
2018-04-27T16:15:12.835Z,100505.13
2018-04-27T16:17:47.512Z,100501.63
2018-04-27T16:20:21.980Z,100496.92
2018-04-27T16:22:56.552Z,100491.25
2018-04-27T16:25:30.916Z,100486.69
2018-04-27T16:28:05.731Z,100481.84
2018-04-27T16:30:40.049Z,100480.09
2018-04-27T16:33:14.651Z,100485.03
2018-04-27T16:35:49.300Z,100478.89
2018-04-27T16:38:25.107Z,100480.20
2018-04-27T16:40:59.304Z,100482.95
2018-04-27T16:43:33.783Z,100481.27
2018-04-27T16:46:08.698Z,100481.78
2018-04-27T16:48:43.358Z,100477.86
2018-04-27T16:51:17.571Z,100479.56
2018-04-27T16:53:52.411Z,100481.95
2018-04-27T16:56:26.569Z,100481.19
2018-04-27T16:59:00.999Z,100486.56
2018-04-27T17:01:35.571Z,100489.11
2018-04-27T17:04:10.037Z,100480.39
2018-04-27T17:06:44.419Z,100485.91
2018-04-27T17:09:18.924Z,100487.61
2018-04-27T17:11:53.231Z,100487.20
2018-04-27T17:14:27.639Z,100479.72
2018-04-27T17:17:02.334Z,100487.66
2018-04-27T17:19:36.643Z,100478.73
2018-04-27T17:22:11.162Z,100476.34
2018-04-27T17:24:46.267Z,100476.16
2018-04-27T17:27:20.677Z,100472.34
2018-04-27T17:29:55.008Z,100466.50
2018-04-27T17:32:29.484Z,100475.52
2018-04-27T17:35:03.781Z,100477.08
2018-04-27T17:37:38.162Z,100479.73
2018-04-27T17:40:12.851Z,100480.84
2018-04-27T17:42:47.334Z,100482.22
2018-04-27T17:45:22.233Z,100480.50
2018-04-27T17:47:56.692Z,100469.45
2018-04-27T17:50:31.496Z,100470.90
2018-04-27T17:53:05.836Z,100476.35
2018-04-27T17:55:40.915Z,100475.64
2018-04-27T17:58:15.663Z,100472.13
2018-04-27T18:00:49.939Z,100464.88
2018-04-27T18:03:24.955Z,100454.85
2018-04-27T18:05:59.227Z,100454.48
2018-04-27T18:08:33.926Z,100450.13
2018-04-27T18:11:08.190Z,100444.34
2018-04-27T18:13:42.994Z,100453.15
2018-04-27T18:16:17.351Z,100444.53
2018-04-27T18:18:51.911Z,100448.80
2018-04-27T18:21:26.281Z,100451.89
2018-04-27T18:24:01.054Z,100454.91
2018-04-27T18:26:35.554Z,100441.97
2018-04-27T18:29:10.120Z,100453.34
2018-04-27T18:31:44.643Z,100450.23
2018-04-27T18:34:19.107Z,100447.34
2018-04-27T18:36:53.757Z,100449.16
2018-04-27T18:39:28.401Z,100445.56
2018-04-27T18:42:02.859Z,100447.40
2018-04-27T18:44:37.498Z,100451.70
2018-04-27T18:47:11.972Z,100452.48
2018-04-27T18:49:46.606Z,100452.30
2018-04-27T18:52:21.120Z,100465.53
2018-04-27T18:54:55.578Z,100461.11
2018-04-27T18:57:29.861Z,100461.19
2018-04-27T19:00:04.600Z,100461.45
2018-04-27T19:02:39.176Z,100462.19
2018-04-27T19:05:13.651Z,100466.03
2018-04-27T19:07:48.219Z,100464.49
2018-04-27T19:10:22.680Z,100464.80
2018-04-27T19:12:57.071Z,100473.77
2018-04-27T19:15:32.484Z,100467.69
2018-04-27T19:18:07.639Z,100477.13
2018-04-27T19:20:42.491Z,100476.31
2018-04-27T19:23:17.290Z,100477.95
2018-04-27T19:25:53.168Z,100472.76
2018-04-27T19:28:28.763Z,100475.08
2018-04-27T19:31:03.038Z,100473.42
2018-04-27T19:33:37.692Z,100453.83
2018-04-27T19:36:12.249Z,100477.23
2018-04-27T19:38:46.824Z,100481.91
2018-04-27T19:41:21.220Z,100474.13
2018-04-27T19:43:55.679Z,100481.75
2018-04-27T19:46:30.144Z,100487.25
2018-04-27T19:49:04.721Z,100484.97
2018-04-27T19:51:39.320Z,100488.33
2018-04-27T19:54:13.708Z,100482.77
2018-04-27T19:56:48.170Z,100486.91
2018-04-27T19:59:22.546Z,100484.20
2018-04-27T20:01:57.002Z,100482.16
2018-04-27T20:04:31.464Z,100478.66
2018-04-27T20:07:05.803Z,100474.70
2018-04-27T20:09:40.651Z,100473.30
2018-04-27T20:12:15.238Z,100474.95
2018-04-27T20:14:49.666Z,100475.84
2018-04-27T20:17:35.935Z,100470.41
2018-04-27T20:20:11.930Z,100460.02
2018-04-27T20:22:48.195Z,100466.63
2018-04-27T20:25:23.041Z,100461.17
2018-04-27T20:27:57.618Z,100462.69
2018-04-27T20:30:31.713Z,100453.15
2018-04-27T20:33:06.343Z,100454.98
2018-04-27T20:35:40.879Z,100455.47
2018-04-27T20:38:25.559Z,100449.12
2018-04-27T20:41:00.439Z,100450.66
2018-04-27T20:43:35.059Z,100448.88
2018-04-27T20:46:09.724Z,100444.22
2018-04-27T20:48:44.088Z,100438.64
2018-04-27T20:51:19.112Z,100434.57
2018-04-27T20:53:55.246Z,100432.94
2018-04-27T20:56:46.150Z,100425.91
2018-04-27T20:59:20.084Z,100423.96
2018-04-27T21:01:54.851Z,100415.05
2018-04-27T21:04:29.202Z,100417.80
2018-04-27T21:07:03.450Z,100416.18
2018-04-27T21:09:38.021Z,100413.52
2018-04-27T21:12:12.584Z,100412.05
2018-04-27T21:14:47.045Z,100406.59
2018-04-27T21:17:21.604Z,100394.93
2018-04-27T21:19:55.965Z,100401.05
2018-04-27T21:22:30.226Z,100392.72
2018-04-27T21:25:07.962Z,100394.58
2018-04-27T21:27:42.297Z,100388.53
2018-04-27T21:30:17.039Z,100388.25
2018-04-27T21:32:51.500Z,100377.66
2018-04-27T21:38:40.996Z,100377.31
2018-04-27T21:41:29.937Z,100370.91
2018-04-27T21:44:07.027Z,100372.98
2018-04-27T21:46:41.567Z,100367.77
2018-04-27T21:49:19.621Z,100364.51
2018-04-27T21:51:55.179Z,100366.09
2018-04-27T21:54:31.204Z,100367.00
2018-04-27T21:57:08.139Z,100366.80
2018-04-27T22:03:00.797Z,100363.50
2018-04-27T22:08:43.185Z,100349.06
2018-04-27T22:11:23.944Z,100350.47
2018-04-27T22:13:58.223Z,100348.84
2018-04-27T22:16:35.136Z,100356.55
2018-04-27T22:19:10.102Z,100353.45
2018-04-27T22:21:44.656Z,100345.84
2018-04-27T22:24:19.040Z,100352.37
2018-04-27T22:26:54.545Z,100352.95
2018-04-27T22:29:29.178Z,100340.09
2018-04-27T22:32:14.402Z,100344.42
2018-04-27T22:34:54.565Z,100336.18
2018-04-27T22:37:29.968Z,100337.79
2018-04-27T22:40:08.373Z,100332.06
2018-04-27T22:42:46.205Z,100335.53
2018-04-27T22:45:20.404Z,100334.03
2018-04-27T22:48:10.453Z,100331.77
2018-04-27T22:50:47.646Z,100323.55
2018-04-27T22:53:21.696Z,100319.58
2018-04-27T22:55:56.060Z,100327.82
2018-04-27T22:58:29.864Z,100324.55
2018-04-27T23:01:05.356Z,100325.45
2018-04-27T23:03:39.470Z,100331.48
2018-04-27T23:06:13.889Z,100318.25
2018-04-27T23:08:50.130Z,100327.67
2018-04-27T23:11:25.225Z,100332.70
2018-04-27T23:14:10.843Z,100326.84
2018-04-27T23:16:54.603Z,100329.47
2018-04-27T23:22:33.513Z,100322.73
2018-04-27T23:25:08.616Z,100313.12
2018-04-27T23:27:42.442Z,100322.84
2018-04-27T23:30:18.022Z,100318.55
2018-04-27T23:32:52.411Z,100311.08
2018-04-27T23:35:26.613Z,100316.39
2018-04-27T23:38:09.172Z,100305.39
2018-04-27T23:43:36.831Z,100301.56
2018-04-27T23:46:11.289Z,100299.02
2018-04-27T23:48:45.876Z,100298.03
2018-04-27T23:51:20.218Z,100297.12
2018-04-27T23:53:55.355Z,100291.84
2018-04-27T23:56:31.409Z,100289.50
2018-04-27T23:59:05.397Z,100288.16
